createdAt,value
2018-03-26T00:00:18.940Z,35.7
2018-03-26T00:02:18.820Z,31.5
2018-03-26T00:04:19.726Z,32
2018-03-26T00:06:19.008Z,35.4
2018-03-26T00:08:18.906Z,37
2018-03-26T00:10:19.321Z,27.5
2018-03-26T00:12:19.183Z,35.5
2018-03-26T00:14:19.083Z,31.9
2018-03-26T00:16:19.362Z,29.7
2018-03-26T00:18:19.304Z,39.7
2018-03-26T00:20:19.188Z,38.2
2018-03-26T00:22:19.072Z,30.3
2018-03-26T00:24:18.961Z,28.9
2018-03-26T00:26:19.223Z,31.4
2018-03-26T00:28:19.108Z,31
2018-03-26T00:30:19.013Z,34.6
2018-03-26T00:32:18.889Z,29.9
2018-03-26T00:34:19.769Z,29.8
2018-03-26T00:36:19.109Z,34.9
2018-03-26T00:38:18.965Z,31.9
2018-03-26T00:40:19.342Z,32
2018-03-26T00:42:19.232Z,32.7
2018-03-26T00:44:19.114Z,34.5
2018-03-26T00:46:18.917Z,33
2018-03-26T00:48:19.780Z,29.6
2018-03-26T00:50:19.660Z,31
2018-03-26T00:52:19.555Z,26.3
2018-03-26T00:54:19.418Z,32
2018-03-26T00:56:19.155Z,36.9
2018-03-26T00:58:19.013Z,29.4
2018-03-26T01:00:18.898Z,33.1
2018-03-26T01:02:19.804Z,32.8
2018-03-26T01:04:19.690Z,34
2018-03-26T01:06:18.997Z,33.7
2018-03-26T01:08:18.889Z,35.4
2018-03-26T01:10:19.238Z,29.5
2018-03-26T01:12:19.094Z,26.3
2018-03-26T01:14:18.988Z,31.3
2018-03-26T01:16:19.812Z,31
2018-03-26T01:18:19.758Z,28.7
2018-03-26T01:20:19.641Z,32.5
2018-03-26T01:22:19.531Z,32.8
2018-03-26T01:24:19.435Z,32.5
2018-03-26T01:26:19.191Z,37.3
2018-03-26T01:28:19.080Z,31
2018-03-26T01:30:18.959Z,33
2018-03-26T01:32:18.853Z,30.2
2018-03-26T01:34:19.712Z,34.6
2018-03-26T01:36:18.957Z,29.9
2018-03-26T01:38:18.860Z,31.4
2018-03-26T01:40:19.250Z,26.3
2018-03-26T01:42:19.104Z,32.9
2018-03-26T01:44:18.984Z,28.3
2018-03-26T01:46:19.724Z,35.5
2018-03-26T01:48:19.595Z,35.3
2018-03-26T01:50:19.473Z,31
2018-03-26T01:52:19.350Z,34.3
2018-03-26T01:54:19.226Z,38.8
2018-03-26T01:56:18.993Z,30.1
2018-03-26T01:58:18.880Z,34.1
2018-03-26T02:00:19.661Z,33.7
2018-03-26T02:02:19.411Z,31
2018-03-26T02:04:19.204Z,31.7
2018-03-26T02:06:19.319Z,37.7
2018-03-26T02:08:19.104Z,30.1
2018-03-26T02:10:19.444Z,30.3
2018-03-26T02:12:19.236Z,31.2
2018-03-26T02:14:19.020Z,35.8
2018-03-26T02:16:19.073Z,31.2
2018-03-26T02:18:18.938Z,33.7
2018-03-26T02:20:18.706Z,29.9
2018-03-26T02:22:19.509Z,32.2
2018-03-26T02:24:19.270Z,30.8
2018-03-26T02:26:19.402Z,35.5
2018-03-26T02:28:19.168Z,27
2018-03-26T02:30:18.952Z,34
2018-03-26T02:32:18.722Z,33.9
2018-03-26T02:34:19.472Z,29.2
2018-03-26T02:36:19.050Z,29.9
2018-03-26T02:38:18.821Z,27.5
2018-03-26T02:40:19.056Z,31
2018-03-26T02:42:18.876Z,25.8
2018-03-26T02:44:19.687Z,30.7
2018-03-26T02:46:18.812Z,31.3
2018-03-26T02:48:19.614Z,24.1
2018-03-26T02:50:19.408Z,30.3
2018-03-26T02:52:19.177Z,28.1
2018-03-26T02:54:18.958Z,33
2018-03-26T02:56:19.618Z,34.9
2018-03-26T02:58:19.384Z,26.4
2018-03-26T03:00:19.176Z,31.9
2018-03-26T03:02:18.948Z,31.8
2018-03-26T03:04:18.709Z,29.9
2018-03-26T03:06:19.363Z,30.2
2018-03-26T03:08:19.117Z,34.3
2018-03-26T03:10:19.420Z,28.2
2018-03-26T03:12:19.213Z,33.6
2018-03-26T03:14:19.002Z,33.7
2018-03-26T03:16:19.087Z,35.7
2018-03-26T03:18:18.953Z,33.8
2018-03-26T03:20:18.723Z,32.3
2018-03-26T03:22:19.493Z,31.5
2018-03-26T03:24:19.278Z,35.5
2018-03-26T03:26:19.409Z,28.5
2018-03-26T03:28:19.204Z,33.3
2018-03-26T03:30:18.980Z,29.3
2018-03-26T03:32:18.732Z,29.8
2018-03-26T03:34:19.501Z,34.5
2018-03-26T03:36:19.028Z,26.9
2018-03-26T03:38:18.787Z,30.6
2018-03-26T03:40:19.054Z,35.4
2018-03-26T03:42:18.828Z,32.1
2018-03-26T03:44:19.596Z,27.5
2018-03-26T03:46:19.207Z,30.9
2018-03-26T03:48:18.979Z,33.4
2018-03-26T03:50:18.766Z,31
2018-03-26T03:52:19.526Z,29.9
2018-03-26T03:54:19.285Z,37.1
2018-03-26T03:56:19.352Z,33.3
2018-03-26T03:58:19.120Z,33.8
2018-03-26T04:00:18.876Z,33.8
2018-03-26T04:02:19.627Z,34.9
2018-03-26T04:04:19.400Z,31.1
2018-03-26T04:06:19.526Z,36.3
2018-03-26T04:08:19.322Z,30.3
2018-03-26T04:10:19.652Z,34.7
2018-03-26T04:12:19.420Z,32.7
2018-03-26T04:14:19.199Z,37.3
2018-03-26T04:16:19.038Z,37.7
2018-03-26T04:18:18.963Z,31.4
2018-03-26T04:20:18.737Z,31.1
2018-03-26T04:22:19.518Z,31.6
2018-03-26T04:24:19.289Z,31.7
2018-03-26T04:26:19.419Z,32
2018-03-26T04:28:19.200Z,35.2
2018-03-26T04:30:18.997Z,39.5
2018-03-26T04:32:18.798Z,36.4
2018-03-26T04:34:19.572Z,34.3
2018-03-26T04:36:19.180Z,31.6
2018-03-26T04:38:18.951Z,27.1
2018-03-26T04:40:19.266Z,34.8
2018-03-26T04:42:19.036Z,33.1
2018-03-26T04:44:18.808Z,40.1
2018-03-26T04:46:19.092Z,28.7
2018-03-26T04:48:18.853Z,33.6
2018-03-26T04:50:19.638Z,30.3
2018-03-26T04:52:19.466Z,32.7
2018-03-26T04:54:19.255Z,36.8
2018-03-26T04:56:19.588Z,31.9
2018-03-26T04:58:19.366Z,30.2
2018-03-26T05:00:19.228Z,29.3
2018-03-26T05:02:19.032Z,33.5
2018-03-26T05:04:18.811Z,41.3
2018-03-26T05:06:19.458Z,40.1
2018-03-26T05:08:19.254Z,30.8
2018-03-26T05:10:19.501Z,34.9
2018-03-26T05:12:19.288Z,35.2
2018-03-26T05:14:19.091Z,29.7
2018-03-26T05:16:19.181Z,38.1
2018-03-26T05:18:19.051Z,40.7
2018-03-26T05:20:18.925Z,30.3
2018-03-26T05:22:19.687Z,38.8
2018-03-26T05:24:19.441Z,30.7
2018-03-26T05:26:19.549Z,33.7
2018-03-26T05:28:19.310Z,30.3
2018-03-26T05:30:19.116Z,42.2
2018-03-26T05:32:18.889Z,29.2
2018-03-26T05:34:19.679Z,36.1
2018-03-26T05:36:18.794Z,34.4
2018-03-26T05:38:19.570Z,31.3
2018-03-26T05:40:18.790Z,33.9
2018-03-26T05:42:19.558Z,33.1
2018-03-26T05:44:19.340Z,35.2
2018-03-26T05:46:19.071Z,34.3
2018-03-26T05:48:18.840Z,38
2018-03-26T05:50:19.582Z,32.9
2018-03-26T05:52:19.346Z,40.8
2018-03-26T05:54:19.106Z,37.2
2018-03-26T05:56:19.249Z,37
2018-03-26T05:58:19.020Z,35.3
2018-03-26T06:00:18.795Z,38
2018-03-26T06:02:19.553Z,32.5
2018-03-26T06:04:19.316Z,34.4
2018-03-26T06:06:19.058Z,32.6
2018-03-26T06:08:18.840Z,35.9
2018-03-26T06:10:19.078Z,32.2
2018-03-26T06:12:18.853Z,34.5
2018-03-26T06:14:19.603Z,43.4
2018-03-26T06:16:18.780Z,33.8
2018-03-26T06:18:19.635Z,31.8
2018-03-26T06:20:19.416Z,35.7
2018-03-26T06:22:19.195Z,29.2
2018-03-26T06:24:18.972Z,33.5
2018-03-26T06:26:19.189Z,33.8
2018-03-26T06:28:19.013Z,32.4
2018-03-26T06:30:18.778Z,33.7
2018-03-26T06:32:19.557Z,31.2
2018-03-26T06:34:19.324Z,31.2
2018-03-26T06:36:19.448Z,33.9
2018-03-26T06:38:19.202Z,32.3
2018-03-26T06:40:19.572Z,29.7
2018-03-26T06:42:19.360Z,35.9
2018-03-26T06:44:19.222Z,36.2
2018-03-26T06:46:19.328Z,47.2
2018-03-26T06:48:19.087Z,31.4
2018-03-26T06:50:18.876Z,31.7
2018-03-26T06:52:19.648Z,31.9
2018-03-26T06:54:19.415Z,26.6
2018-03-26T06:56:19.119Z,40.7
2018-03-26T06:58:18.875Z,35.8
2018-03-26T07:00:19.713Z,31.5
2018-03-26T07:02:19.570Z,32.8
2018-03-26T07:04:19.335Z,33.9
2018-03-26T07:06:19.405Z,32
2018-03-26T07:08:19.192Z,34.5
2018-03-26T07:10:19.418Z,35.2
2018-03-26T07:12:19.250Z,34.6
2018-03-26T07:14:19.014Z,26.1
2018-03-26T07:16:19.614Z,25.4
2018-03-26T07:18:19.427Z,27.7
2018-03-26T07:20:19.240Z,28.7
2018-03-26T07:22:19.281Z,31.7
2018-03-26T07:24:19.077Z,29.5
2018-03-26T07:26:19.604Z,29.8
2018-03-26T07:28:19.372Z,30.7
2018-03-26T07:30:19.154Z,33.6
2018-03-26T07:32:18.955Z,30.4
2018-03-26T07:34:18.750Z,36.4
2018-03-26T07:36:19.038Z,33
2018-03-26T07:38:18.780Z,31.3
2018-03-26T07:40:18.990Z,33.7
2018-03-26T07:42:18.777Z,32.1
2018-03-26T07:44:19.566Z,31
2018-03-26T07:46:18.720Z,31.5
2018-03-26T07:48:19.479Z,30.5
2018-03-26T07:50:19.284Z,29.3
2018-03-26T07:52:19.079Z,29.7
2018-03-26T07:54:18.860Z,30.9
2018-03-26T07:56:19.474Z,33.7
2018-03-26T07:58:19.254Z,32.7
2018-03-26T08:00:19.002Z,43.1
2018-03-26T08:02:18.753Z,32.9
2018-03-26T08:04:19.517Z,43.8
2018-03-26T08:06:19.151Z,37.4
2018-03-26T08:08:18.936Z,33.9
2018-03-26T08:10:19.200Z,41.4
2018-03-26T08:12:18.961Z,27.1
2018-03-26T08:14:18.737Z,32.8
2018-03-26T08:16:19.490Z,41.5
2018-03-26T08:18:19.381Z,35.6
2018-03-26T08:20:19.181Z,37.1
2018-03-26T08:22:18.927Z,34.5
2018-03-26T08:24:18.690Z,29.6
2018-03-26T08:26:18.757Z,31.6
2018-03-26T08:28:19.524Z,36.3
2018-03-26T08:30:19.324Z,38.2
2018-03-26T08:32:19.089Z,40.2
2018-03-26T08:34:18.851Z,29.5
2018-03-26T08:36:19.400Z,34.8
2018-03-26T08:38:19.198Z,29.1
2018-03-26T08:40:19.463Z,31.1
2018-03-26T08:42:19.544Z,33
2018-03-26T08:44:19.397Z,31.6
2018-03-26T08:46:19.647Z,29.8
2018-03-26T08:48:19.419Z,33.8
2018-03-26T08:50:19.433Z,30.9
2018-03-26T08:52:19.225Z,30.4
2018-03-26T08:54:19.000Z,30.8
2018-03-26T08:56:19.667Z,31.1
2018-03-26T08:58:19.456Z,31.6
2018-03-26T09:00:19.378Z,43.9
2018-03-26T09:02:19.147Z,41.5
2018-03-26T09:04:18.899Z,29.8
2018-03-26T09:06:19.033Z,34.4
2018-03-26T09:08:18.808Z,32.2
2018-03-26T09:10:19.041Z,32.6
2018-03-26T09:12:18.829Z,34
2018-03-26T09:14:19.603Z,38.8
2018-03-26T09:16:18.856Z,31.5
2018-03-26T09:18:18.720Z,42.8
2018-03-26T09:20:19.562Z,33
2018-03-26T09:22:19.361Z,44
2018-03-26T09:24:19.116Z,35.3
2018-03-26T09:26:19.220Z,41.3
2018-03-26T09:28:18.988Z,39.7
2018-03-26T09:30:18.786Z,36.4
2018-03-26T09:32:19.572Z,38.5
2018-03-26T09:34:19.331Z,38.5
2018-03-26T09:36:18.852Z,39.7
2018-03-26T09:38:19.656Z,37.5
2018-03-26T09:40:18.923Z,49.3
2018-03-26T09:42:19.703Z,37.9
2018-03-26T09:44:19.475Z,42.1
2018-03-26T09:46:19.720Z,42.8
2018-03-26T09:48:19.480Z,45.6
2018-03-26T09:50:19.315Z,52.1
2018-03-26T09:52:18.779Z,46.5
2018-03-26T09:54:19.563Z,45
2018-03-26T09:56:19.641Z,49.8
2018-03-26T09:58:19.410Z,47
2018-03-26T10:00:19.206Z,46.8
2018-03-26T10:02:18.960Z,50.9
2018-03-26T10:04:18.851Z,57.2
2018-03-26T10:06:19.508Z,53.3
2018-03-26T10:08:19.312Z,56.7
2018-03-26T10:10:19.611Z,64.9
2018-03-26T10:12:19.446Z,59.7
2018-03-26T10:14:19.226Z,57.6
2018-03-26T10:16:18.740Z,55.9
2018-03-26T10:18:19.588Z,50.1
2018-03-26T10:20:19.368Z,60.4
2018-03-26T10:22:19.141Z,56.9
2018-03-26T10:24:18.918Z,58.4
2018-03-26T10:26:19.038Z,48.8
2018-03-26T10:28:18.817Z,45.6
2018-03-26T10:30:19.590Z,52.2
2018-03-26T10:32:19.390Z,55.5
2018-03-26T10:34:19.171Z,46.4
2018-03-26T10:36:19.342Z,45.1
2018-03-26T10:38:19.121Z,47.1
2018-03-26T10:40:19.580Z,42.5
2018-03-26T10:42:19.355Z,47.3
2018-03-26T10:44:19.112Z,50.5
2018-03-26T10:46:18.739Z,35.5
2018-03-26T10:48:19.513Z,39.7
2018-03-26T10:50:19.309Z,44.5
2018-03-26T10:52:19.091Z,33.8
2018-03-26T10:54:18.858Z,37.7
2018-03-26T10:56:19.455Z,39.4
2018-03-26T10:58:19.239Z,42.8
2018-03-26T11:00:19.099Z,35.7
2018-03-26T11:02:18.870Z,37.1
2018-03-26T11:04:19.623Z,33.2
2018-03-26T11:06:18.742Z,30.1
2018-03-26T11:08:19.539Z,35.6
2018-03-26T11:10:18.809Z,32.9
2018-03-26T11:12:19.586Z,35.5
2018-03-26T11:14:19.342Z,41.6
2018-03-26T11:16:18.887Z,41.7
2018-03-26T11:18:18.721Z,38.3
2018-03-26T11:20:19.516Z,40.7
2018-03-26T11:22:19.277Z,41.7
2018-03-26T11:24:19.067Z,31.9
2018-03-26T11:26:19.650Z,33.8
2018-03-26T11:28:19.447Z,49.8
2018-03-26T11:30:19.384Z,49
2018-03-26T11:32:19.174Z,58.3
2018-03-26T11:34:18.938Z,55.6
2018-03-26T11:36:19.706Z,55.4
2018-03-26T11:38:19.490Z,52.1
2018-03-26T11:40:18.764Z,55.4
2018-03-26T11:42:19.533Z,58
2018-03-26T11:44:19.282Z,55.4
2018-03-26T11:46:19.336Z,57
2018-03-26T11:48:19.144Z,60
2018-03-26T11:50:18.951Z,46.1
2018-03-26T11:52:18.699Z,58.7
2018-03-26T11:54:19.467Z,53.9
2018-03-26T11:56:19.078Z,48.9
2018-03-26T11:58:18.864Z,57
2018-03-26T12:00:19.664Z,59.1
2018-03-26T12:02:19.431Z,49.8
2018-03-26T12:04:19.186Z,56
2018-03-26T12:06:19.281Z,58.2
2018-03-26T12:08:19.076Z,59
2018-03-26T12:10:19.330Z,51.8
2018-03-26T12:12:19.115Z,47.4
2018-03-26T12:14:18.908Z,61.8
2018-03-26T12:16:19.435Z,46.4
2018-03-26T12:18:19.278Z,46
2018-03-26T12:20:19.140Z,48.1
2018-03-26T12:22:18.934Z,49.8
2018-03-26T12:24:18.690Z,49.2
2018-03-26T12:26:19.331Z,35.3
2018-03-26T12:28:19.116Z,41.3
2018-03-26T12:30:18.972Z,36.4
2018-03-26T12:32:18.760Z,34.5
2018-03-26T12:34:19.549Z,48
2018-03-26T12:36:18.705Z,35
2018-03-26T12:38:19.489Z,31.7
2018-03-26T12:40:18.779Z,35.5
2018-03-26T12:42:19.542Z,47
2018-03-26T12:44:19.324Z,34.8
2018-03-26T12:46:19.446Z,30.9
2018-03-26T12:48:19.225Z,32.3
2018-03-26T12:50:18.990Z,41.2
2018-03-26T12:52:18.744Z,30
2018-03-26T12:54:19.554Z,32.1
2018-03-26T12:56:19.668Z,31.6
2018-03-26T12:58:19.461Z,35.1
2018-03-26T13:00:19.320Z,40.3
2018-03-26T13:02:19.081Z,34.8
2018-03-26T13:04:18.865Z,29.2
2018-03-26T13:06:19.448Z,33.6
2018-03-26T13:08:19.236Z,36.2
2018-03-26T13:10:19.528Z,41.1
2018-03-26T13:12:19.298Z,36.8
2018-03-26T13:14:19.129Z,38
2018-03-26T13:16:19.693Z,35.4
2018-03-26T13:18:19.541Z,39.4
2018-03-26T13:20:19.381Z,40.8
2018-03-26T13:22:19.156Z,34
2018-03-26T13:24:18.943Z,39
2018-03-26T13:26:19.537Z,28.9
2018-03-26T13:28:19.279Z,26.5
2018-03-26T13:30:19.066Z,31.2
2018-03-26T13:32:18.843Z,30.2
2018-03-26T13:34:19.630Z,29.7
2018-03-26T13:36:19.209Z,26.5
2018-03-26T13:38:19.019Z,28.5
2018-03-26T13:40:19.280Z,25
2018-03-26T13:42:19.069Z,26.9
2018-03-26T13:44:18.862Z,32
2018-03-26T13:46:19.016Z,24.3
2018-03-26T13:48:18.842Z,26.7
2018-03-26T13:50:19.738Z,24.4
2018-03-26T13:52:19.517Z,27.1
2018-03-26T13:54:19.287Z,29.7
2018-03-26T13:56:18.866Z,25.5
2018-03-26T13:58:19.651Z,21.9
2018-03-26T14:00:19.433Z,26.4
2018-03-26T14:02:19.251Z,23.4
2018-03-26T14:04:19.063Z,21.6
2018-03-26T14:06:19.229Z,20.1
2018-03-26T14:08:19.004Z,21.1
2018-03-26T14:10:19.272Z,14.1
2018-03-26T14:12:19.082Z,13.8
2018-03-26T14:14:18.873Z,23.8
2018-03-26T14:16:19.433Z,19.3
2018-03-26T14:18:19.297Z,17.1
2018-03-26T14:20:19.237Z,17.8
2018-03-26T14:22:19.021Z,22.3
2018-03-26T14:24:18.790Z,13.2
2018-03-26T14:26:19.008Z,10.3
2018-03-26T14:28:18.798Z,15
2018-03-26T14:30:19.595Z,13.8
2018-03-26T14:32:19.374Z,13.6
2018-03-26T14:34:19.161Z,12
2018-03-26T14:36:18.843Z,9.2
2018-03-26T14:38:19.630Z,9.5
2018-03-26T14:40:18.888Z,20.9
2018-03-26T14:42:19.677Z,11.2
2018-03-26T14:44:19.481Z,9.8
2018-03-26T14:46:19.074Z,11
2018-03-26T14:48:18.845Z,6.2
2018-03-26T14:50:19.650Z,9.5
2018-03-26T14:52:19.441Z,7.3
2018-03-26T14:54:19.267Z,8.1
2018-03-26T14:56:19.369Z,10.3
2018-03-26T14:58:19.162Z,13.4
2018-03-26T15:00:18.964Z,9.3
2018-03-26T15:02:18.788Z,8.1
2018-03-26T15:04:19.583Z,11.6
2018-03-26T15:06:19.298Z,7.1
2018-03-26T15:08:19.093Z,10.8
2018-03-26T15:10:19.392Z,8.5
2018-03-26T15:12:19.179Z,8.4
2018-03-26T15:14:18.968Z,8.8
2018-03-26T15:16:19.499Z,7.4
2018-03-26T15:18:19.391Z,4.6
2018-03-26T15:20:19.254Z,7.3
2018-03-26T15:22:19.030Z,5.4
2018-03-26T15:24:18.828Z,6.5
2018-03-26T15:26:18.963Z,5.4
2018-03-26T15:28:18.737Z,5.2
2018-03-26T15:30:19.587Z,6.2
2018-03-26T15:32:19.381Z,7.2
2018-03-26T15:34:19.196Z,11.3
2018-03-26T15:36:19.371Z,10.2
2018-03-26T15:38:19.188Z,7.4
2018-03-26T15:40:19.663Z,6.4
2018-03-26T15:42:19.425Z,3.3
2018-03-26T15:44:19.218Z,4.2
2018-03-26T15:46:18.823Z,8.1
2018-03-26T15:48:19.750Z,5.4
2018-03-26T15:50:19.583Z,3.5
2018-03-26T15:52:19.355Z,4.2
2018-03-26T15:54:19.149Z,6.7
2018-03-26T15:56:18.772Z,5.3
2018-03-26T15:58:19.562Z,7
2018-03-26T16:00:19.353Z,5.9
2018-03-26T16:02:19.155Z,6.5
2018-03-26T16:04:18.942Z,3.9
2018-03-26T16:06:19.101Z,6.3
2018-03-26T16:08:18.882Z,6.3
2018-03-26T16:10:19.178Z,7.1
2018-03-26T16:12:18.933Z,7.2
2018-03-26T16:14:19.714Z,5.4
2018-03-26T16:16:18.857Z,10
2018-03-26T16:18:19.713Z,6.6
2018-03-26T16:20:19.498Z,4.7
2018-03-26T16:22:19.296Z,6.6
2018-03-26T16:24:19.101Z,5.7
2018-03-26T16:26:19.396Z,7.7
2018-03-26T16:28:19.183Z,9.8
2018-03-26T16:30:18.988Z,9.5
2018-03-26T16:32:18.791Z,7.1
2018-03-26T16:34:19.547Z,8.2
2018-03-26T16:36:19.188Z,10.3
2018-03-26T16:38:19.016Z,5.8
2018-03-26T16:40:19.297Z,6.7
2018-03-26T16:42:18.916Z,5.3
2018-03-26T16:44:19.681Z,13
2018-03-26T16:46:19.237Z,6.1
2018-03-26T16:48:19.001Z,7.8
2018-03-26T16:50:18.782Z,8.7
2018-03-26T16:52:19.321Z,6
2018-03-26T16:54:19.116Z,9.2
2018-03-26T16:56:19.658Z,9.8
2018-03-26T16:58:19.408Z,9.1
2018-03-26T17:00:19.202Z,5
2018-03-26T17:02:19.003Z,11
2018-03-26T17:04:18.806Z,6.5
2018-03-26T17:06:19.442Z,10.9
2018-03-26T17:08:19.214Z,11.8
2018-03-26T17:10:19.454Z,7.7
2018-03-26T17:12:19.263Z,12.8
2018-03-26T17:14:19.057Z,11.1
2018-03-26T17:16:19.140Z,16.2
2018-03-26T17:18:19.015Z,9.8
2018-03-26T17:20:18.803Z,10.9
2018-03-26T17:22:19.582Z,10.2
2018-03-26T17:24:19.346Z,9.8
2018-03-26T17:26:19.474Z,12.5
2018-03-26T17:28:19.241Z,14.8
2018-03-26T17:30:19.032Z,18.2
2018-03-26T17:32:18.831Z,15.9
2018-03-26T17:34:19.600Z,10.2
2018-03-26T17:36:19.165Z,6.3
2018-03-26T17:38:18.954Z,9.2
2018-03-26T17:40:19.213Z,14.2
2018-03-26T17:42:18.967Z,11.3
2018-03-26T17:44:18.716Z,11.8
2018-03-26T17:46:18.780Z,7.7
2018-03-26T17:48:19.591Z,12.2
2018-03-26T17:50:19.384Z,11.9
2018-03-26T17:52:19.166Z,9.2
2018-03-26T17:54:18.936Z,11.6
2018-03-26T17:56:19.588Z,13.1
2018-03-26T17:58:19.369Z,10
2018-03-26T18:00:19.151Z,14
2018-03-26T18:02:18.919Z,8.9
2018-03-26T18:04:18.690Z,7.3
2018-03-26T18:06:19.256Z,11.7
2018-03-26T18:08:19.026Z,10
2018-03-26T18:10:19.299Z,10.2
2018-03-26T18:12:19.082Z,11.7
2018-03-26T18:14:18.847Z,6.7
2018-03-26T18:16:18.912Z,13.4
2018-03-26T18:18:18.767Z,9
2018-03-26T18:20:19.540Z,9.1
2018-03-26T18:22:19.302Z,7.4
2018-03-26T18:24:19.071Z,6.6
2018-03-26T18:26:18.809Z,9.4
2018-03-26T18:28:19.599Z,10.7
2018-03-26T18:30:19.363Z,11.1
2018-03-26T18:32:19.137Z,9.8
2018-03-26T18:34:18.917Z,11.5
2018-03-26T18:36:19.589Z,12.1
2018-03-26T18:38:19.371Z,12.2
2018-03-26T18:40:19.664Z,13.5
2018-03-26T18:42:19.436Z,13.9
2018-03-26T18:44:19.235Z,9.9
2018-03-26T18:46:19.318Z,11.5
2018-03-26T18:48:19.081Z,14.5
2018-03-26T18:50:18.852Z,16.9
2018-03-26T18:52:19.640Z,14.7
2018-03-26T18:54:19.429Z,12.9
2018-03-26T18:56:19.097Z,11.2
2018-03-26T18:58:18.857Z,15.8
2018-03-26T19:00:19.651Z,16.5
2018-03-26T19:02:19.411Z,15.5
2018-03-26T19:04:19.192Z,12
2018-03-26T19:06:19.455Z,12.5
2018-03-26T19:08:19.216Z,15.7
2018-03-26T19:10:19.481Z,11.8
2018-03-26T19:12:19.236Z,10.7
2018-03-26T19:14:19.015Z,9.6
2018-03-26T19:16:19.678Z,12.9
2018-03-26T19:18:19.553Z,16
2018-03-26T19:20:19.342Z,10.3
2018-03-26T19:22:19.113Z,10.5
2018-03-26T19:24:18.907Z,12.5
2018-03-26T19:26:19.628Z,12.6
2018-03-26T19:28:19.393Z,11.6
2018-03-26T19:30:19.218Z,8.8
2018-03-26T19:32:18.977Z,8.2
2018-03-26T19:34:18.767Z,8.2
2018-03-26T19:36:18.862Z,11
2018-03-26T19:38:19.658Z,8.9
2018-03-26T19:40:18.926Z,6
2018-03-26T19:42:19.715Z,5.3
2018-03-26T19:44:19.478Z,9.1
2018-03-26T19:46:19.133Z,6.2
2018-03-26T19:48:18.911Z,9.5
2018-03-26T19:50:19.744Z,9.5
2018-03-26T19:52:19.488Z,11.9
2018-03-26T19:54:19.262Z,6.1
2018-03-26T19:56:19.377Z,14.5
2018-03-26T19:58:19.166Z,9.2
2018-03-26T20:00:18.951Z,12
2018-03-26T20:02:19.068Z,14.4
2018-03-26T20:04:18.840Z,10.3
2018-03-26T20:06:19.341Z,10.3
2018-03-26T20:08:19.092Z,6.1
2018-03-26T20:10:19.316Z,10.3
2018-03-26T20:12:19.076Z,9.3
2018-03-26T20:14:18.864Z,12.2
2018-03-26T20:16:19.459Z,9.5
2018-03-26T20:18:19.298Z,7.9
2018-03-26T20:20:19.086Z,7.4
2018-03-26T20:22:18.849Z,8.5
2018-03-26T20:24:19.597Z,10.7
2018-03-26T20:26:19.171Z,9.6
2018-03-26T20:28:18.926Z,7.7
2018-03-26T20:30:18.683Z,8.4
2018-03-26T20:32:18.803Z,8.3
2018-03-26T20:34:19.581Z,10
2018-03-26T20:36:19.671Z,9.5
2018-03-26T20:38:19.606Z,9.2
2018-03-26T20:40:18.872Z,8.1
2018-03-26T20:42:19.629Z,18.4
2018-03-26T20:44:19.387Z,6
2018-03-26T20:46:18.918Z,15.4
2018-03-26T20:48:19.682Z,8.8
2018-03-26T20:50:19.447Z,13.1
2018-03-26T20:52:19.238Z,9.3
2018-03-26T20:54:18.995Z,10
2018-03-26T20:56:18.874Z,8.4
2018-03-26T20:58:19.646Z,11.2
2018-03-26T21:00:19.501Z,7.9
2018-03-26T21:02:19.224Z,9
2018-03-26T21:04:18.990Z,12
2018-03-26T21:06:19.084Z,6.6
2018-03-26T21:08:18.871Z,12.2
2018-03-26T21:10:19.210Z,7
2018-03-26T21:12:18.989Z,13.5
2018-03-26T21:14:18.777Z,9.3
2018-03-26T21:16:19.061Z,8.6
2018-03-26T21:18:18.905Z,7.7
2018-03-26T21:20:19.658Z,7.6
2018-03-26T21:22:19.445Z,10.1
2018-03-26T21:24:19.225Z,8.6
2018-03-26T21:26:18.764Z,10.1
2018-03-26T21:28:19.524Z,9
2018-03-26T21:30:19.304Z,8.7
2018-03-26T21:32:19.058Z,9.8
2018-03-26T21:34:18.812Z,7.5
2018-03-26T21:36:18.868Z,5.5
2018-03-26T21:38:19.647Z,9.5
2018-03-26T21:40:18.858Z,6.9
2018-03-26T21:42:19.630Z,6.9
2018-03-26T21:44:19.401Z,11.5
2018-03-26T21:46:19.177Z,9.5
2018-03-26T21:48:18.992Z,8.7
2018-03-26T21:50:18.825Z,7.5
2018-03-26T21:52:19.570Z,6.1
2018-03-26T21:54:19.328Z,6
2018-03-26T21:56:19.550Z,5.4
2018-03-26T21:58:19.329Z,8.2
2018-03-26T22:00:19.116Z,11
2018-03-26T22:02:18.906Z,8.1
2018-03-26T22:04:19.675Z,6.4
2018-03-26T22:06:18.794Z,5.1
2018-03-26T22:08:19.584Z,7.7
2018-03-26T22:10:18.833Z,11.3
2018-03-26T22:12:19.591Z,6.3
2018-03-26T22:14:19.337Z,6.6
2018-03-26T22:16:19.403Z,7.5
2018-03-26T22:18:19.251Z,9.5
2018-03-26T22:20:19.011Z,8.8
2018-03-26T22:22:18.772Z,8.3
2018-03-26T22:24:19.562Z,4.4
2018-03-26T22:26:19.112Z,4.2
2018-03-26T22:28:18.896Z,6.3
2018-03-26T22:30:19.667Z,5.3
2018-03-26T22:32:19.412Z,5.6
2018-03-26T22:34:19.176Z,14.3
2018-03-26T22:36:19.237Z,4.7
2018-03-26T22:38:18.989Z,7.9
2018-03-26T22:40:19.222Z,7.7
2018-03-26T22:42:18.971Z,5.3
2018-03-26T22:44:18.737Z,5
2018-03-26T22:46:19.294Z,5
2018-03-26T22:48:19.056Z,4.6
2018-03-26T22:50:18.807Z,2.6
2018-03-26T22:52:19.556Z,3.7
2018-03-26T22:54:19.297Z,2.6
2018-03-26T22:56:18.830Z,7
2018-03-26T22:58:19.612Z,3.5
2018-03-26T23:00:19.368Z,5.7
2018-03-26T23:02:19.186Z,6.3
2018-03-26T23:04:18.937Z,2.9
2018-03-26T23:06:19.174Z,3
2018-03-26T23:08:18.945Z,7.8
2018-03-26T23:10:19.185Z,5.6
2018-03-26T23:12:18.938Z,2.9
2018-03-26T23:14:18.714Z,6.2
2018-03-26T23:16:19.323Z,5.4
2018-03-26T23:18:19.179Z,3.5
2018-03-26T23:20:19.017Z,5.8
2018-03-26T23:22:18.799Z,4.2
2018-03-26T23:24:19.554Z,2
2018-03-26T23:26:19.053Z,5.4
2018-03-26T23:28:18.827Z,2
2018-03-26T23:30:19.594Z,3.5
2018-03-26T23:32:19.345Z,2.3
2018-03-26T23:34:19.127Z,3.4
2018-03-26T23:36:18.785Z,2.8
2018-03-26T23:38:19.527Z,4.8
2018-03-26T23:40:18.791Z,4.6
2018-03-26T23:42:19.544Z,2.8
2018-03-26T23:44:19.275Z,5.9
2018-03-26T23:46:19.349Z,3.2
2018-03-26T23:48:19.109Z,2.8
2018-03-26T23:50:18.874Z,3
2018-03-26T23:52:19.672Z,3.6
2018-03-26T23:54:19.441Z,2.8
2018-03-26T23:56:19.081Z,2.2
2018-03-26T23:58:18.837Z,3.3
